createdAt,value
2022-12-31T00:03:56.505Z,100959
2022-12-31T00:08:56.911Z,100959
2022-12-31T00:13:56.469Z,100966
2022-12-31T00:18:56.605Z,100972
2022-12-31T00:23:56.497Z,100968
2022-12-31T00:28:56.591Z,100974
2022-12-31T00:33:56.493Z,100988
2022-12-31T00:38:56.505Z,100988
2022-12-31T00:43:56.685Z,100994
2022-12-31T00:53:56.657Z,101007
2022-12-31T00:58:56.490Z,101014
2022-12-31T01:03:56.627Z,101018
2022-12-31T01:13:56.656Z,101014
2022-12-31T01:18:56.482Z,101007
2022-12-31T01:23:56.518Z,101003
2022-12-31T01:28:56.524Z,101003
2022-12-31T01:33:56.541Z,101015
2022-12-31T01:38:56.537Z,101015
2022-12-31T01:43:56.548Z,101015
2022-12-31T01:48:56.628Z,101033
2022-12-31T01:53:56.532Z,101021
2022-12-31T01:58:56.660Z,101016
2022-12-31T02:03:56.498Z,101014
2022-12-31T02:08:56.538Z,101016
2022-12-31T02:13:58.589Z,101014
2022-12-31T02:23:56.704Z,101009
2022-12-31T02:28:56.552Z,101008
2022-12-31T02:33:56.726Z,101027
2022-12-31T02:38:56.509Z,101027
2022-12-31T02:43:56.644Z,101031
2022-12-31T02:48:56.519Z,101031
2022-12-31T02:53:56.606Z,101026
2022-12-31T02:58:56.757Z,101009
2022-12-31T03:03:56.546Z,101009
2022-12-31T03:08:56.729Z,100999
2022-12-31T03:13:56.564Z,101013
2022-12-31T03:18:56.700Z,100996
2022-12-31T03:23:56.529Z,101009
2022-12-31T03:28:56.761Z,101010
2022-12-31T03:33:56.589Z,101010
2022-12-31T03:38:56.623Z,101001
2022-12-31T03:43:56.567Z,100994
2022-12-31T03:48:56.590Z,100984
2022-12-31T03:53:56.575Z,100998
2022-12-31T03:58:56.615Z,101005
2022-12-31T04:03:56.767Z,101010
2022-12-31T04:08:56.591Z,101004
2022-12-31T04:13:56.541Z,101004
2022-12-31T04:18:56.594Z,101001
2022-12-31T04:23:56.656Z,101010
2022-12-31T04:28:56.555Z,101012
2022-12-31T04:33:56.612Z,101028
2022-12-31T04:38:56.552Z,101030
2022-12-31T04:43:56.595Z,101030
2022-12-31T04:48:56.611Z,101039
2022-12-31T04:53:56.948Z,101047
2022-12-31T04:58:56.577Z,101060
2022-12-31T05:03:56.599Z,101075
2022-12-31T05:08:56.732Z,101068
2022-12-31T05:13:56.804Z,101073
2022-12-31T05:18:56.599Z,101071
2022-12-31T05:23:56.610Z,101074
2022-12-31T05:28:56.579Z,101074
2022-12-31T05:33:56.825Z,101094
2022-12-31T05:38:56.576Z,101100
2022-12-31T05:43:56.729Z,101094
2022-12-31T05:48:56.617Z,101089
2022-12-31T05:53:56.635Z,101097
2022-12-31T05:58:56.593Z,101094
2022-12-31T06:03:56.632Z,101113
2022-12-31T06:08:56.610Z,101113
2022-12-31T06:13:56.667Z,101108
2022-12-31T06:18:56.719Z,101105
2022-12-31T06:23:56.605Z,101099
2022-12-31T06:28:56.789Z,101102
2022-12-31T06:33:56.595Z,101108
2022-12-31T06:38:56.709Z,101114
2022-12-31T06:43:56.845Z,101128
2022-12-31T06:48:56.647Z,101121
2022-12-31T06:53:56.638Z,101127
2022-12-31T06:58:56.614Z,101137
2022-12-31T07:03:56.648Z,101136
2022-12-31T07:08:56.924Z,101136
2022-12-31T07:13:56.657Z,101159
2022-12-31T07:18:56.640Z,101159
2022-12-31T07:23:56.722Z,101158
2022-12-31T07:28:56.622Z,101158
2022-12-31T07:33:56.707Z,101152
2022-12-31T07:38:56.860Z,101145
2022-12-31T07:43:56.641Z,101169
2022-12-31T07:48:56.808Z,101172
2022-12-31T07:53:57.761Z,101173
2022-12-31T07:58:56.632Z,101174
2022-12-31T08:03:56.669Z,101187
2022-12-31T08:08:56.668Z,101183
2022-12-31T08:13:56.899Z,101187
2022-12-31T08:18:56.667Z,101187
2022-12-31T08:23:56.885Z,101205
2022-12-31T08:28:56.637Z,101205
2022-12-31T08:34:00.698Z,101222
2022-12-31T08:38:56.681Z,101231
2022-12-31T08:43:56.707Z,101231
2022-12-31T08:48:56.649Z,101235
2022-12-31T08:53:56.894Z,101250
2022-12-31T09:03:56.850Z,101272
2022-12-31T09:08:56.714Z,101272
2022-12-31T09:13:56.681Z,101245
2022-12-31T09:18:56.708Z,101239
2022-12-31T09:23:56.717Z,101225
2022-12-31T09:28:56.716Z,101229
2022-12-31T09:33:56.729Z,101212
2022-12-31T09:44:00.899Z,101217
2022-12-31T09:48:56.770Z,101183
2022-12-31T09:53:56.949Z,101182
2022-12-31T09:58:56.988Z,101179
2022-12-31T10:03:56.746Z,101185
2022-12-31T10:08:56.818Z,101186
2022-12-31T10:13:56.845Z,101186
2022-12-31T10:18:56.723Z,101186
2022-12-31T10:23:56.839Z,101183
2022-12-31T10:28:56.694Z,101169
2022-12-31T10:33:56.780Z,101158
2022-12-31T10:38:56.936Z,101175
2022-12-31T10:43:56.688Z,101175
2022-12-31T10:48:56.882Z,101197
2022-12-31T10:53:56.728Z,101166
2022-12-31T10:58:56.872Z,101166
2022-12-31T11:03:56.711Z,101153
2022-12-31T11:08:56.831Z,101174
2022-12-31T11:13:56.824Z,101174
2022-12-31T11:18:56.831Z,101173
2022-12-31T11:23:57.007Z,101165
2022-12-31T11:28:56.752Z,101165
2022-12-31T11:33:56.915Z,101160
2022-12-31T11:38:56.753Z,101169
2022-12-31T11:43:56.920Z,101168
2022-12-31T11:48:56.756Z,101146
2022-12-31T11:53:56.800Z,101138
2022-12-31T11:58:56.748Z,101138
2022-12-31T12:03:56.788Z,101182
2022-12-31T12:08:56.770Z,101177
2022-12-31T12:13:56.792Z,101177
2022-12-31T12:18:56.765Z,101181
2022-12-31T12:23:56.795Z,101170
2022-12-31T12:28:56.912Z,101172
2022-12-31T12:33:56.781Z,101172
2022-12-31T12:38:56.888Z,101166
2022-12-31T12:43:56.749Z,101166
2022-12-31T12:53:56.773Z,101160
2022-12-31T12:58:56.804Z,101157
2022-12-31T13:04:32.444Z,101150
2022-12-31T13:08:56.756Z,101150
2022-12-31T13:13:56.786Z,101159
2022-12-31T13:18:56.781Z,101158
2022-12-31T13:23:56.878Z,101182
2022-12-31T13:28:56.776Z,101162
2022-12-31T13:33:56.813Z,101162
2022-12-31T13:38:56.753Z,101160
2022-12-31T13:43:56.801Z,101180
2022-12-31T13:48:56.933Z,101180
2022-12-31T13:58:56.895Z,101187
2022-12-31T14:03:56.814Z,101186
2022-12-31T14:08:56.800Z,101202
2022-12-31T14:13:56.813Z,101202
2022-12-31T14:18:58.799Z,101197
2022-12-31T14:23:56.830Z,101181
2022-12-31T14:28:56.800Z,101182
2022-12-31T14:33:56.990Z,101181
2022-12-31T14:38:56.815Z,101181
2022-12-31T14:43:56.845Z,101193
2022-12-31T14:48:56.835Z,101191
2022-12-31T14:53:58.944Z,101186
2022-12-31T14:58:56.798Z,101190
2022-12-31T15:03:56.889Z,101185
2022-12-31T15:08:59.881Z,101178
2022-12-31T15:13:56.825Z,101204
2022-12-31T15:18:57.004Z,101220
2022-12-31T15:23:56.803Z,101200
2022-12-31T15:28:57.041Z,101190
2022-12-31T15:33:56.864Z,101200
2022-12-31T15:38:56.932Z,101230
2022-12-31T15:43:56.859Z,101230
2022-12-31T15:49:03.739Z,101237
2022-12-31T15:53:57.050Z,101230
2022-12-31T15:58:56.884Z,101203
2022-12-31T16:03:56.890Z,101209
2022-12-31T16:08:56.849Z,101217
2022-12-31T16:13:58.165Z,101224
2022-12-31T16:18:56.845Z,101225
2022-12-31T16:23:56.957Z,101192
2022-12-31T16:28:56.874Z,101192
2022-12-31T16:33:56.978Z,101220
2022-12-31T16:38:57.072Z,101220
2022-12-31T16:43:56.900Z,101223
2022-12-31T16:48:56.978Z,101223
2022-12-31T16:53:56.892Z,101231
2022-12-31T16:58:56.856Z,101223
2022-12-31T17:03:56.878Z,101212
2022-12-31T17:08:56.922Z,101232
2022-12-31T17:13:56.905Z,101239
2022-12-31T17:18:56.866Z,101230
2022-12-31T17:23:56.991Z,101239
2022-12-31T17:28:56.869Z,101253
2022-12-31T17:33:57.069Z,101258
2022-12-31T17:38:56.866Z,101243
2022-12-31T17:43:57.032Z,101241
2022-12-31T17:48:56.917Z,101241
2022-12-31T17:53:56.920Z,101250
2022-12-31T18:03:56.957Z,101238
2022-12-31T18:08:57.090Z,101234
2022-12-31T18:13:57.007Z,101240
2022-12-31T18:18:56.917Z,101242
2022-12-31T18:28:57.051Z,101263
2022-12-31T18:33:56.921Z,101266
2022-12-31T18:38:57.475Z,101273
2022-12-31T18:43:56.963Z,101286
2022-12-31T18:48:56.914Z,101289
2022-12-31T18:53:57.330Z,101286
2022-12-31T18:58:56.931Z,101289
2022-12-31T19:03:57.106Z,101279
2022-12-31T19:08:56.932Z,101279
2022-12-31T19:13:56.950Z,101281
2022-12-31T19:18:56.905Z,101282
2022-12-31T19:23:57.115Z,101277
2022-12-31T19:28:57.019Z,101267
2022-12-31T19:33:57.003Z,101287
2022-12-31T19:38:56.940Z,101289
2022-12-31T19:43:56.937Z,101274
2022-12-31T19:48:57.095Z,101274
2022-12-31T19:53:56.969Z,101278
2022-12-31T19:58:56.940Z,101251
2022-12-31T20:03:56.962Z,101245
2022-12-31T20:08:56.967Z,101252
2022-12-31T20:13:56.964Z,101253
2022-12-31T20:18:57.028Z,101252
2022-12-31T20:23:57.211Z,101252
2022-12-31T20:28:56.948Z,101251
2022-12-31T20:33:57.155Z,101253
2022-12-31T20:38:56.980Z,101258
2022-12-31T20:43:57.130Z,101267
2022-12-31T20:48:56.988Z,101264
2022-12-31T20:53:57.097Z,101250
2022-12-31T20:58:56.977Z,101258
2022-12-31T21:04:05.824Z,101253
2022-12-31T21:08:56.989Z,101254
2022-12-31T21:18:57.159Z,101270
2022-12-31T21:23:56.998Z,101272
2022-12-31T21:28:57.122Z,101274
2022-12-31T21:33:56.985Z,101298
2022-12-31T21:43:57.000Z,101304
2022-12-31T21:48:57.070Z,101302
2022-12-31T21:53:57.012Z,101298
2022-12-31T21:58:57.039Z,101304
2022-12-31T22:03:57.019Z,101304
2022-12-31T22:08:57.030Z,101305
2022-12-31T22:13:56.965Z,101303
2022-12-31T22:18:57.044Z,101311
2022-12-31T22:23:57.230Z,101304
2022-12-31T22:28:56.973Z,101301
2022-12-31T22:33:57.063Z,101295
2022-12-31T22:38:57.024Z,101295
2022-12-31T22:44:03.130Z,101279
2022-12-31T22:48:57.018Z,101282
2022-12-31T22:58:57.034Z,101292
2022-12-31T23:03:57.132Z,101279
2022-12-31T23:08:56.988Z,101278
2022-12-31T23:13:57.107Z,101278
2022-12-31T23:19:00.443Z,101268
2022-12-31T23:23:57.038Z,101272
2022-12-31T23:28:57.025Z,101269
2022-12-31T23:33:57.229Z,101271
2022-12-31T23:38:57.019Z,101286
2022-12-31T23:43:57.212Z,101280
2022-12-31T23:48:57.038Z,101281
2022-12-31T23:53:57.014Z,101289
2022-12-31T23:58:57.065Z,101282
